This is the latest recevied weather packets stored in our database for station/object EA7AIS-10. If no packets are shown the sender has not sent any weather packets the latest 10 day(s).
| Time | Temp. | Humidity | Pressure | Rain* | Wind** | Luminosity | Snow |
|---|---|---|---|---|---|---|---|
| 1777616166 | 16.11° C | 77% | 1015.8 hPa | - | - | - | - |
| 1777614365 | 14.44° C | 79% | 1015.4 hPa | - | - | - | - |
| 1777613465 | 13.89° C | 79% | 1015.5 hPa | - | - | - | - |
| 1777612565 | 13.89° C | 81% | 1015.4 hPa | - | - | - | - |
| 1777610765 | 14.44° C | 81% | 1015.2 hPa | - | - | - | - |
| 1777609865 | 14.44° C | 81% | 1015 hPa | - | - | - | - |
| 1777608965 | 14.44° C | 81% | 1015.1 hPa | - | - | - | - |
| 1777608065 | 14.44° C | 81% | 1015.1 hPa | - | - | - | - |
| 1777607165 | 15° C | 81% | 1015.2 hPa | - | - | - | - |
| 1777605365 | 15° C | 81% | 1015.2 hPa | - | - | - | - |
| 1777604465 | 15° C | 79% | 1015.2 hPa | - | - | - | - |
| 1777603565 | 15° C | 79% | 1015.1 hPa | - | - | - | - |
| 1777602664 | 15° C | 79% | 1015.1 hPa | - | - | - | - |
| 1777601764 | 15.56° C | 79% | 1015 hPa | - | - | - | - |
| 1777599965 | 15.56° C | 77% | 1015.2 hPa | - | - | - | - |
| 1777599064 | 16.11° C | 76% | 1015.1 hPa | - | - | - | - |
| 1777598164 | 16.11° C | 74% | 1015.3 hPa | - | - | - | - |
| 1777597264 | 16.11° C | 74% | 1015.2 hPa | - | - | - | - |
| 1777596364 | 16.11° C | 73% | 1015.3 hPa | - | - | - | - |
| 1777594564 | 16.11° C | 71% | 1015.6 hPa | - | - | - | - |
| 1777593664 | 16.67° C | 68% | 1015.6 hPa | - | - | - | - |
| 1777592764 | 16.67° C | 66% | 1015.6 hPa | - | - | - | - |
| 1777591864 | 16.67° C | 65% | 1015.6 hPa | - | - | - | - |
| 1777590964 | 17.22° C | 64% | 1015.6 hPa | - | - | - | - |
| 1777589163 | 17.22° C | 65% | 1015.6 hPa | - | - | - | - |
* Rain since midnight (hover to see other rain measurements)
** Current wind speed in m/s (hover to see current wind gust speed)